Accueil
METAR-TAF:

METAR-TAF

Aéroports :

Johannesburg, Afrique du Sud

latitude: 26-09S, longitude: 28-00E, altitude: 1626 m

Observation

Le bulletin a été fait il y a 1 heure et 0 minutes, à 12:00 UTC
Vent 3 kt de nord/nord-ouest
Température 20°C
Humidité 10%
Pression 1024 hPa

METAR: FAJB 211200Z AUTO 34003KT //// // ////// 20/M13 Q1024

Heure: 15:00 (13:00 UTC)


TAF: absent

Observations et prévisions météorologiques de plus de 4000 aéroports (messages METAR et TAF).

Les stations disponibles sont représentées par des disques jaunes et rouges sur la carte.

Passer la souris dessus pour voir le nom de la station.

Cliquer dessus pour voir les observations et prévisions météorologiques.

Pour changer de carte: cliquez sur les boutons verts avec une croix noire pour zoomer, sur le bouton vert avec un tiret pour effectuer un zoom arrière, ou sur les flèches vertes pour les cartes adjacentes.


METAR-TAF: